createdAt,value
2017-04-19T00:00:28.611Z,78.92
2017-04-19T00:01:28.615Z,78.83
2017-04-19T00:02:28.633Z,79.36
2017-04-19T00:03:28.654Z,79.02
2017-04-19T00:04:28.847Z,79.36
2017-04-19T00:05:28.379Z,79.55
2017-04-19T00:06:28.699Z,79.07
2017-04-19T00:07:28.716Z,79.36
2017-04-19T00:08:43.347Z,79.45
2017-04-19T00:09:29.048Z,79.36
2017-04-19T00:10:28.763Z,79.26
2017-04-19T00:11:28.781Z,79.45
2017-04-19T00:12:28.796Z,79.26
2017-04-19T00:13:28.812Z,79.36
2017-04-19T00:14:28.829Z,79.17
2017-04-19T00:15:28.846Z,79.83
2017-04-19T00:16:28.862Z,80.21
2017-04-19T00:18:28.895Z,80.02
2017-04-19T00:19:28.910Z,80.02
2017-04-19T00:20:28.926Z,80.02
2017-04-19T00:21:28.949Z,80.3
2017-04-19T00:22:28.961Z,79.93
2017-04-19T00:23:28.976Z,80.49
2017-04-19T00:24:43.609Z,80.49
2017-04-19T00:25:29.011Z,80.21
2017-04-19T00:26:29.029Z,80.11
2017-04-19T00:27:29.041Z,80.21
2017-04-19T00:28:29.057Z,80.87
2017-04-19T00:29:29.075Z,80.68
2017-04-19T00:30:29.093Z,80.77
2017-04-19T00:31:29.108Z,80.87
2017-04-19T00:32:29.122Z,81.06
2017-04-19T00:33:29.138Z,80.96
2017-04-19T00:34:29.154Z,80.96
2017-04-19T00:35:29.172Z,80.96
2017-04-19T00:36:29.192Z,81.15
2017-04-19T00:37:29.204Z,81.25
2017-04-19T00:38:29.221Z,81.59
2017-04-19T00:39:43.853Z,81.3
2017-04-19T00:40:29.256Z,81.49
2017-04-19T00:41:29.268Z,81.21
2017-04-19T00:42:29.284Z,82.06
2017-04-19T00:43:29.304Z,81.59
2017-04-19T00:44:29.617Z,81.68
2017-04-19T00:45:29.333Z,81.96
2017-04-19T00:46:29.350Z,82.15
2017-04-19T00:47:29.365Z,81.96
2017-04-19T00:48:29.383Z,82.34
2017-04-19T00:49:29.398Z,82.44
2017-04-19T00:50:29.489Z,82.82
2017-04-19T00:52:29.444Z,82.34
2017-04-19T00:53:29.462Z,83.01
2017-04-19T00:54:29.478Z,82.63
2017-04-19T00:55:29.493Z,82.63
2017-04-19T00:56:29.509Z,82.72
2017-04-19T00:57:29.527Z,82.53
2017-04-19T00:58:29.239Z,82.63
2017-04-19T00:59:29.557Z,82.91
2017-04-19T01:00:29.573Z,82.91
2017-04-19T01:01:29.592Z,82.91
2017-04-19T01:02:29.606Z,82.91
2017-04-19T01:03:29.621Z,82.91
2017-04-19T01:04:29.642Z,83.2
2017-04-19T01:05:29.652Z,83.48
2017-04-19T01:06:29.670Z,83.48
2017-04-19T01:09:29.716Z,83.29
2017-04-19T01:10:29.741Z,83.86
2017-04-19T01:11:44.361Z,83.48
2017-04-19T01:12:29.766Z,83.48
2017-04-19T01:13:29.780Z,83.2
2017-04-19T01:14:29.794Z,84.05
2017-04-19T01:15:29.808Z,84.05
2017-04-19T01:16:29.825Z,83.76
2017-04-19T01:17:29.841Z,84.23
2017-04-19T01:18:29.857Z,83.91
2017-04-19T01:19:29.872Z,84.29
2017-04-19T01:20:29.888Z,84.01
2017-04-19T01:21:29.908Z,84.01
2017-04-19T01:22:29.920Z,84.1
2017-04-19T01:24:29.952Z,84.67
2017-04-19T01:26:29.982Z,84.58
2017-04-19T01:27:44.613Z,84.39
2017-04-19T01:28:30.014Z,84.86
2017-04-19T01:29:30.028Z,84.39
2017-04-19T01:30:30.046Z,84.2
2017-04-19T01:31:30.063Z,84.58
2017-04-19T01:32:30.079Z,84.39
2017-04-19T01:33:30.094Z,84.48
2017-04-19T01:34:30.109Z,84.77
2017-04-19T01:35:30.124Z,85.24
2017-04-19T01:36:30.138Z,84.95
2017-04-19T01:37:30.153Z,84.67
2017-04-19T01:38:30.209Z,85.42
2017-04-19T01:39:30.184Z,84.95
2017-04-19T01:41:30.218Z,85.33
2017-04-19T01:42:30.234Z,85.24
2017-04-19T01:43:44.861Z,85.8
2017-04-19T01:44:30.264Z,85.8
2017-04-19T01:45:30.278Z,85.8
2017-04-19T01:46:30.293Z,86.09
2017-04-19T01:47:30.309Z,86.18
2017-04-19T01:48:30.326Z,86.28
2017-04-19T01:49:30.391Z,86.09
2017-04-19T01:50:30.355Z,86.37
2017-04-19T01:51:30.371Z,86.94
2017-04-19T01:52:30.388Z,87.04
2017-04-19T01:54:30.421Z,86.85
2017-04-19T01:55:30.431Z,86.47
2017-04-19T01:57:30.465Z,87.32
2017-04-19T01:58:30.177Z,87.41
2017-04-19T01:59:45.109Z,86.85
2017-04-19T02:00:30.509Z,87.23
2017-04-19T02:01:30.530Z,87.32
2017-04-19T02:02:30.540Z,87.41
2017-04-19T02:03:30.560Z,87.41
2017-04-19T02:04:30.571Z,87.18
2017-04-19T02:05:30.584Z,87.23
2017-04-19T02:06:30.603Z,87.13
2017-04-19T02:07:30.625Z,87.65
2017-04-19T02:08:30.633Z,88.22
2017-04-19T02:09:30.646Z,87.84
2017-04-19T02:10:30.662Z,87.88
2017-04-19T02:12:30.694Z,87.98
2017-04-19T02:13:30.713Z,87.79
2017-04-19T02:14:45.340Z,87.93
2017-04-19T02:15:30.742Z,88.03
2017-04-19T02:16:30.758Z,88.12
2017-04-19T02:17:30.773Z,88.88
2017-04-19T02:18:30.791Z,89.07
2017-04-19T02:19:30.804Z,89.07
2017-04-19T02:20:30.818Z,89.07
2017-04-19T02:21:30.831Z,88.98
2017-04-19T02:22:30.847Z,89.07
2017-04-19T02:23:30.557Z,88.79
2017-04-19T02:24:30.877Z,88.79
2017-04-19T02:27:30.921Z,88.88
2017-04-19T02:28:30.937Z,88.79
2017-04-19T02:29:30.953Z,88.69
2017-04-19T02:30:30.968Z,88.5
2017-04-19T02:31:30.983Z,88.69
2017-04-19T02:32:30.999Z,88.69
2017-04-19T02:33:31.014Z,88.79
2017-04-19T02:34:31.027Z,88.79
2017-04-19T02:35:31.042Z,88.69
2017-04-19T02:36:31.059Z,88.69
2017-04-19T02:37:31.073Z,88.69
2017-04-19T02:38:31.088Z,88.88
2017-04-19T02:39:31.102Z,89.17
2017-04-19T02:41:31.134Z,88.6
2017-04-19T02:43:31.164Z,88.31
2017-04-19T02:44:31.184Z,88.6
2017-04-19T02:45:31.192Z,88.69
2017-04-19T02:46:45.823Z,88.69
2017-04-19T02:47:31.224Z,89.17
2017-04-19T02:48:31.239Z,89.17
2017-04-19T02:49:31.258Z,89.17
2017-04-19T02:50:31.268Z,89.36
2017-04-19T02:51:31.288Z,88.88
2017-04-19T02:52:31.298Z,89.73
2017-04-19T02:53:31.315Z,89.73
2017-04-19T02:54:31.330Z,89.73
2017-04-19T02:55:31.448Z,89.45
2017-04-19T02:56:31.358Z,89.45
2017-04-19T02:57:31.372Z,89.83
2017-04-19T02:59:31.403Z,89.73
2017-04-19T03:01:31.433Z,89.45
2017-04-19T03:02:46.062Z,89.92
2017-04-19T03:03:31.464Z,90.01
2017-04-19T03:04:31.477Z,90.01
2017-04-19T03:05:31.188Z,90.01
2017-04-19T03:06:31.203Z,89.92
2017-04-19T03:07:31.521Z,90.01
2017-04-19T03:08:31.550Z,90.3
2017-04-19T03:09:31.550Z,89.83
2017-04-19T03:11:31.579Z,90.01
2017-04-19T03:12:31.595Z,90.11
2017-04-19T03:13:31.610Z,90.2
2017-04-19T03:16:31.654Z,90.49
2017-04-19T03:17:31.669Z,90.58
2017-04-19T03:18:46.298Z,90.68
2017-04-19T03:19:31.393Z,91.15
2017-04-19T03:20:31.712Z,90.96
2017-04-19T03:21:31.728Z,90.86
2017-04-19T03:22:31.743Z,91.24
2017-04-19T03:23:31.757Z,91.34
2017-04-19T03:24:31.773Z,91.24
2017-04-19T03:25:31.788Z,91.43
2017-04-19T03:26:31.805Z,91.81
2017-04-19T03:27:31.818Z,91.62
2017-04-19T03:28:31.830Z,91.81
2017-04-19T03:29:31.965Z,91.62
2017-04-19T03:31:31.878Z,91.62
2017-04-19T03:32:31.889Z,92.24
2017-04-19T03:33:31.903Z,92.33
2017-04-19T03:34:46.534Z,91.77
2017-04-19T03:35:31.933Z,92.05
2017-04-19T03:36:31.646Z,92.05
2017-04-19T03:37:31.961Z,92.33
2017-04-19T03:38:31.980Z,92.14
2017-04-19T03:39:31.690Z,92.14
2017-04-19T03:40:32.005Z,92.9
2017-04-19T03:41:32.019Z,92.71
2017-04-19T03:42:32.035Z,92.8
2017-04-19T03:44:32.064Z,92.52
2017-04-19T03:45:32.078Z,92.61
2017-04-19T03:47:32.109Z,92.9
2017-04-19T03:48:32.124Z,92.71
2017-04-19T03:49:46.752Z,92.71
2017-04-19T03:50:32.153Z,92.99
2017-04-19T03:51:32.166Z,92.33
2017-04-19T03:52:32.182Z,92.9
2017-04-19T03:53:32.198Z,92.8
2017-04-19T03:54:32.210Z,92.71
2017-04-19T03:55:32.224Z,92.99
2017-04-19T03:56:32.241Z,92.99
2017-04-19T03:57:32.256Z,92.9
2017-04-19T03:58:32.271Z,92.8
2017-04-19T03:59:32.282Z,92.8
2017-04-19T04:00:32.299Z,92.71
2017-04-19T04:01:32.312Z,93.09
2017-04-19T04:03:32.339Z,92.8
2017-04-19T04:04:32.354Z,92.8
2017-04-19T04:05:32.370Z,92.71
2017-04-19T04:06:32.384Z,93.09
2017-04-19T04:07:32.398Z,92.9
2017-04-19T04:08:32.413Z,92.9
2017-04-19T04:09:32.626Z,92.8
2017-04-19T04:10:32.440Z,92.9
2017-04-19T04:11:32.459Z,92.9
2017-04-19T04:12:32.470Z,92.9
2017-04-19T04:13:32.483Z,92.61
2017-04-19T04:14:32.603Z,92.52
2017-04-19T04:15:32.512Z,92.61
2017-04-19T04:16:32.530Z,92.52
2017-04-19T04:18:32.252Z,92.61
2017-04-19T04:19:32.572Z,92.8
2017-04-19T04:20:32.584Z,92.71
2017-04-19T04:21:47.214Z,92.52
2017-04-19T04:22:32.615Z,92.52
2017-04-19T04:23:32.747Z,92.71
2017-04-19T04:24:32.642Z,92.61
2017-04-19T04:25:32.658Z,92.52
2017-04-19T04:26:32.672Z,92.29
2017-04-19T04:27:32.687Z,92.14
2017-04-19T04:28:32.700Z,92.19
2017-04-19T04:29:32.715Z,91.96
2017-04-19T04:30:32.737Z,92.24
2017-04-19T04:31:32.744Z,92.29
2017-04-19T04:32:32.759Z,92.19
2017-04-19T04:33:32.774Z,91.81
2017-04-19T04:34:32.790Z,91.91
2017-04-19T04:35:32.803Z,91.91
2017-04-19T04:36:32.818Z,92
2017-04-19T04:37:47.447Z,91.91
2017-04-19T04:38:32.851Z,92.19
2017-04-19T04:39:32.862Z,92
2017-04-19T04:40:32.876Z,91.53
2017-04-19T04:41:32.891Z,91.53
2017-04-19T04:42:32.923Z,91.72
2017-04-19T04:43:32.919Z,91.72
2017-04-19T04:44:32.935Z,91.53
2017-04-19T04:45:32.950Z,90.96
2017-04-19T04:46:32.964Z,90.58
2017-04-19T04:47:32.979Z,89.83
2017-04-19T04:48:32.994Z,88.93
2017-04-19T04:49:33.011Z,87.23
2017-04-19T04:51:33.040Z,84.19
2017-04-19T04:52:33.059Z,82.48
2017-04-19T04:53:47.689Z,81.82
2017-04-19T04:54:33.092Z,80.96
2017-04-19T04:55:33.139Z,80.49
2017-04-19T04:56:33.128Z,79.3
2017-04-19T04:57:33.147Z,77.88
2017-04-19T04:58:33.165Z,76.21
2017-04-19T04:59:33.186Z,75.17
2017-04-19T05:00:33.206Z,75.7
2017-04-19T05:01:33.226Z,75.79
2017-04-19T05:02:33.244Z,74.51
2017-04-19T05:03:33.266Z,74.22
2017-04-19T05:04:33.286Z,73.84
2017-04-19T05:05:33.308Z,73.03
2017-04-19T05:07:33.358Z,72.8
2017-04-19T05:08:33.375Z,73.08
2017-04-19T05:09:48.013Z,71.95
2017-04-19T05:10:33.419Z,71.98
2017-04-19T05:11:33.139Z,71.03
2017-04-19T05:12:33.467Z,70.37
2017-04-19T05:13:33.487Z,71.09
2017-04-19T05:14:33.509Z,70.18
2017-04-19T05:15:33.534Z,69.71
2017-04-19T05:16:33.556Z,69.99
2017-04-19T05:17:33.579Z,69.99
2017-04-19T05:18:33.621Z,69.61
2017-04-19T05:19:33.628Z,68.51
2017-04-19T05:20:33.653Z,67.65
2017-04-19T05:21:33.675Z,68.23
2017-04-19T05:22:33.713Z,67.65
2017-04-19T05:23:33.727Z,67.46
2017-04-19T05:24:48.371Z,68.1
2017-04-19T05:25:33.774Z,68.57
2017-04-19T05:26:33.494Z,69.57
2017-04-19T05:27:33.822Z,68.57
2017-04-19T05:28:33.846Z,68.95
2017-04-19T05:29:33.891Z,69.38
2017-04-19T05:30:33.898Z,69.42
2017-04-19T05:31:33.921Z,69.71
2017-04-19T05:32:33.642Z,68.85
2017-04-19T05:33:33.969Z,67.12
2017-04-19T05:34:33.995Z,65.98
2017-04-19T05:35:34.019Z,65.69
2017-04-19T05:37:34.070Z,64.27
2017-04-19T05:38:34.096Z,64.08
2017-04-19T05:39:34.121Z,63.73
2017-04-19T05:40:34.148Z,61.77
2017-04-19T05:41:34.173Z,61.93
2017-04-19T05:42:34.202Z,62.31
2017-04-19T05:43:33.921Z,61.58
2017-04-19T05:44:34.250Z,60.72
2017-04-19T05:45:34.277Z,61.93
2017-04-19T05:46:34.303Z,61.26
2017-04-19T05:47:34.330Z,61.1
2017-04-19T05:48:34.367Z,60.06
2017-04-19T05:49:34.382Z,61.17
2017-04-19T05:50:34.410Z,62.56
2017-04-19T05:51:34.437Z,62.46
2017-04-19T05:52:34.463Z,62.69
2017-04-19T05:53:34.188Z,62.31
2017-04-19T05:54:34.519Z,62.88
2017-04-19T05:55:34.544Z,61.65
2017-04-19T05:56:49.191Z,61.96
2017-04-19T05:57:34.900Z,62.56
2017-04-19T05:58:34.628Z,63.04
2017-04-19T05:59:34.654Z,62.78
2017-04-19T06:00:34.683Z,62.66
2017-04-19T06:01:34.711Z,61.77
2017-04-19T06:02:34.738Z,61.93
2017-04-19T06:03:34.766Z,62.12
2017-04-19T06:04:34.829Z,61.65
2017-04-19T06:05:34.822Z,60.53
2017-04-19T06:06:34.850Z,59.9
2017-04-19T06:07:34.892Z,58.5
2017-04-19T06:08:34.906Z,57.36
2017-04-19T06:09:34.934Z,57.07
2017-04-19T06:10:34.964Z,56.98
2017-04-19T06:11:34.992Z,56.7
2017-04-19T06:12:49.638Z,56.79
2017-04-19T06:13:35.053Z,55.51
2017-04-19T06:14:35.076Z,55.29
2017-04-19T06:15:35.108Z,56.12
2017-04-19T06:16:35.137Z,56.79
2017-04-19T06:17:35.167Z,57.26
2017-04-19T06:18:35.193Z,58.28
2017-04-19T06:19:35.224Z,59.01
2017-04-19T06:20:35.252Z,58.92
2017-04-19T06:21:35.283Z,58.66
2017-04-19T06:22:35.313Z,56.6
2017-04-19T06:23:35.341Z,56.6
2017-04-19T06:24:35.373Z,56.79
2017-04-19T06:25:35.402Z,56.88
2017-04-19T06:26:35.430Z,56.63
2017-04-19T06:27:35.156Z,54.66
2017-04-19T06:28:50.107Z,53.52
2017-04-19T06:29:35.520Z,53.25
2017-04-19T06:30:35.550Z,53.52
2017-04-19T06:31:35.804Z,54.44
2017-04-19T06:32:35.610Z,55.55
2017-04-19T06:33:35.640Z,57.04
2017-04-19T06:34:35.669Z,57.14
2017-04-19T06:35:35.701Z,55.96
2017-04-19T06:36:35.728Z,55.1
2017-04-19T06:37:35.762Z,55.68
2017-04-19T06:38:35.789Z,56.22
2017-04-19T06:39:35.820Z,56.7
2017-04-19T06:40:35.860Z,56.98
2017-04-19T06:42:35.910Z,56.24
2017-04-19T06:43:35.939Z,55.58
2017-04-19T06:44:50.589Z,55.68
2017-04-19T06:45:36.001Z,55.58
2017-04-19T06:46:36.031Z,54.82
2017-04-19T06:47:36.061Z,54.47
2017-04-19T06:48:36.093Z,54.25
2017-04-19T06:49:36.122Z,54.72
2017-04-19T06:50:36.155Z,55.74
2017-04-19T06:51:35.879Z,55.29
2017-04-19T06:52:36.214Z,54.72
2017-04-19T06:53:36.244Z,54.72
2017-04-19T06:55:36.308Z,55.55
2017-04-19T06:56:36.338Z,55.49
2017-04-19T06:57:36.368Z,55.58
2017-04-19T06:58:36.398Z,54.37
2017-04-19T06:59:51.048Z,53.13
2017-04-19T07:00:36.461Z,54.06
2017-04-19T07:01:36.491Z,54.15
2017-04-19T07:02:36.520Z,55.46
2017-04-19T07:03:36.551Z,56.29
2017-04-19T07:04:36.683Z,56.79
2017-04-19T07:05:36.614Z,56.79
2017-04-19T07:06:36.644Z,55.58
2017-04-19T07:07:36.674Z,55.93
2017-04-19T07:08:36.704Z,57.62
2017-04-19T07:09:36.733Z,58.57
2017-04-19T07:10:36.765Z,59.14
2017-04-19T07:13:36.853Z,58.03
2017-04-19T07:14:36.904Z,56.63
2017-04-19T07:15:36.914Z,56.63
2017-04-19T07:16:36.941Z,57.24
2017-04-19T07:17:36.967Z,57.17
2017-04-19T07:18:37.002Z,57.17
2017-04-19T07:19:37.025Z,56.98
2017-04-19T07:20:37.054Z,58.57
2017-04-19T07:21:37.082Z,59.2
2017-04-19T07:22:37.112Z,59.58
2017-04-19T07:23:37.140Z,60.25
2017-04-19T07:24:37.167Z,59.87
2017-04-19T07:25:37.200Z,61.68
2017-04-19T07:26:37.224Z,61.74
2017-04-19T07:27:36.945Z,61.74
2017-04-19T07:28:37.279Z,62.78
2017-04-19T07:29:37.310Z,62.12
2017-04-19T07:30:37.332Z,62.85
2017-04-19T07:31:51.974Z,63.89
2017-04-19T07:32:37.382Z,64.43
2017-04-19T07:33:37.408Z,64.71
2017-04-19T07:34:37.433Z,64.71
2017-04-19T07:35:37.459Z,64.62
2017-04-19T07:36:37.488Z,63.7
2017-04-19T07:37:37.510Z,62.78
2017-04-19T07:38:37.537Z,60.72
2017-04-19T07:39:37.563Z,60.18
2017-04-19T07:40:37.586Z,60.53
2017-04-19T07:42:37.637Z,61.65
2017-04-19T07:43:37.662Z,62.12
2017-04-19T07:45:37.711Z,62.66
2017-04-19T07:46:37.736Z,63.51
2017-04-19T07:47:52.380Z,63.7
2017-04-19T07:48:37.787Z,64.24
2017-04-19T07:49:37.810Z,64.71
2017-04-19T07:50:37.835Z,64.9
2017-04-19T07:51:37.860Z,64.9
2017-04-19T07:52:37.891Z,64.62
2017-04-19T07:53:37.906Z,64.37
2017-04-19T07:54:38.204Z,63.67
2017-04-19T07:55:37.955Z,63.86
2017-04-19T07:56:37.977Z,64.52
2017-04-19T07:57:38.021Z,64.27
2017-04-19T07:58:38.024Z,63.51
2017-04-19T07:59:38.086Z,61.74
2017-04-19T08:00:38.073Z,60.16
2017-04-19T08:01:38.099Z,57.62
2017-04-19T08:02:37.816Z,55.58
2017-04-19T08:03:52.760Z,53.13
2017-04-19T08:04:37.864Z,51.35
2017-04-19T08:05:38.196Z,50.85
2017-04-19T08:06:37.914Z,52.22
2017-04-19T08:07:37.936Z,52.13
2017-04-19T08:08:38.264Z,52.51
2017-04-19T08:09:38.291Z,52.34
2017-04-19T08:10:38.319Z,51.14
2017-04-19T08:11:38.345Z,50.68
2017-04-19T08:12:38.367Z,49.54
2017-04-19T08:13:38.501Z,49.44
2017-04-19T08:14:38.417Z,49.44
2017-04-19T08:17:38.191Z,52.13
2017-04-19T08:18:38.216Z,52.06
2017-04-19T08:19:53.162Z,51.87
2017-04-19T08:20:38.571Z,51.78
2017-04-19T08:21:38.597Z,51.49
2017-04-19T08:22:38.621Z,52.15
2017-04-19T08:23:38.343Z,52.32
2017-04-19T08:24:38.671Z,52.06
2017-04-19T08:25:38.705Z,51.23
2017-04-19T08:26:38.420Z,50.85
2017-04-19T08:27:38.749Z,51.68
2017-04-19T08:28:38.471Z,52.89
2017-04-19T08:29:38.747Z,53.43
2017-04-19T08:30:38.523Z,55.4
2017-04-19T08:31:38.850Z,56.16
2017-04-19T08:33:38.597Z,57.37
2017-04-19T08:34:53.545Z,57.84
2017-04-19T08:35:38.954Z,58.32
2017-04-19T08:36:38.975Z,58.8
2017-04-19T08:37:38.999Z,57.75
2017-04-19T08:38:39.024Z,57.75
2017-04-19T08:39:39.051Z,58.41
2017-04-19T08:40:39.073Z,58.44
2017-04-19T08:41:39.102Z,58.25
2017-04-19T08:42:38.819Z,58.7
2017-04-19T08:43:38.842Z,57.97
2017-04-19T08:44:39.169Z,57.59
2017-04-19T08:45:39.193Z,57.5
2017-04-19T08:46:39.216Z,56.85
2017-04-19T08:48:38.962Z,55.71
2017-04-19T08:49:39.291Z,54.6
2017-04-19T08:50:39.312Z,53.67
2017-04-19T08:51:39.335Z,52.18
2017-04-19T08:52:39.358Z,50.68
2017-04-19T08:53:39.432Z,49.47
2017-04-19T08:54:39.406Z,49.28
2017-04-19T08:55:39.432Z,49.35
2017-04-19T08:56:39.460Z,49.44
2017-04-19T08:57:39.481Z,49.54
2017-04-19T08:58:39.506Z,50.73
2017-04-19T08:59:39.529Z,51.1
2017-04-19T09:01:39.579Z,52.25
2017-04-19T09:02:39.604Z,53.65
2017-04-19T09:04:39.349Z,54.48
2017-04-19T09:05:39.374Z,54.48
2017-04-19T09:06:54.317Z,53.63
2017-04-19T09:07:39.731Z,53.5
2017-04-19T09:08:39.749Z,55.28
2017-04-19T09:09:39.772Z,55.28
2017-04-19T09:10:39.510Z,55.11
2017-04-19T09:11:39.820Z,55.4
2017-04-19T09:12:39.845Z,54.67
2017-04-19T09:13:39.867Z,54.13
2017-04-19T09:14:39.891Z,53.17
2017-04-19T09:15:39.914Z,52.25
2017-04-19T09:16:39.937Z,52.8
2017-04-19T09:18:39.985Z,53.01
2017-04-19T09:19:40.012Z,53.94
2017-04-19T09:20:40.031Z,54.5
2017-04-19T09:21:40.061Z,56.76
2017-04-19T09:22:54.699Z,58.28
2017-04-19T09:23:40.107Z,58.92
2017-04-19T09:24:40.129Z,59.9
2017-04-19T09:25:40.160Z,58.85
2017-04-19T09:26:40.177Z,59.01
2017-04-19T09:27:40.199Z,59.58
2017-04-19T09:28:40.223Z,59.3
2017-04-19T09:29:40.247Z,58.47
2017-04-19T09:30:40.270Z,56.98
2017-04-19T09:31:40.293Z,54.75
2017-04-19T09:32:40.316Z,53.13
2017-04-19T09:34:40.398Z,51.25
2017-04-19T09:35:40.388Z,50.87
2017-04-19T09:36:40.413Z,49.82
2017-04-19T09:37:40.437Z,50.75
2017-04-19T09:38:55.078Z,52.22
2017-04-19T09:39:40.484Z,51.3
2017-04-19T09:40:40.510Z,51.49
2017-04-19T09:41:40.536Z,52.22
2017-04-19T09:42:40.557Z,52.67
2017-04-19T09:43:40.580Z,53.97
2017-04-19T09:44:40.605Z,54.55
2017-04-19T09:45:40.628Z,55.69
2017-04-19T09:46:40.651Z,55.47
2017-04-19T09:47:40.674Z,55.57
2017-04-19T09:48:40.705Z,55.91
2017-04-19T09:49:40.721Z,57.53
2017-04-19T09:50:40.742Z,58.39
2017-04-19T09:52:40.789Z,59.91
2017-04-19T09:53:40.810Z,61.36
2017-04-19T09:54:55.751Z,61.07
2017-04-19T09:55:40.857Z,60.72
2017-04-19T09:56:40.884Z,60.06
2017-04-19T09:57:40.901Z,59.68
2017-04-19T09:58:40.923Z,60.06
2017-04-19T09:59:40.946Z,60.18
2017-04-19T10:00:40.966Z,58.95
2017-04-19T10:01:40.990Z,58.28
2017-04-19T10:02:41.012Z,57.26
2017-04-19T10:03:41.035Z,56.22
2017-04-19T10:04:41.057Z,55.74
2017-04-19T10:08:41.150Z,55.29
2017-04-19T10:09:55.788Z,52.92
2017-04-19T10:10:41.193Z,53.05
2017-04-19T10:11:41.216Z,53.72
2017-04-19T10:12:41.243Z,53.59
2017-04-19T10:13:41.260Z,54.26
2017-04-19T10:14:41.289Z,55.5
2017-04-19T10:15:41.308Z,55.69
2017-04-19T10:16:41.328Z,55.24
2017-04-19T10:17:41.352Z,54.03
2017-04-19T10:18:41.423Z,53.11
2017-04-19T10:19:41.092Z,52.82
2017-04-19T10:20:41.420Z,52.34
2017-04-19T10:22:41.161Z,51.3
2017-04-19T10:23:41.488Z,51.3
2017-04-19T10:24:41.511Z,53.08
2017-04-19T10:25:41.231Z,56.12
2017-04-19T10:26:41.556Z,59.42
2017-04-19T10:27:41.578Z,61.87
2017-04-19T10:28:41.602Z,65
2017-04-19T10:29:41.622Z,68.48
2017-04-19T10:30:41.644Z,70.15
2017-04-19T10:31:41.670Z,72.15
2017-04-19T10:32:41.691Z,72.63
2017-04-19T10:33:41.711Z,72.11
2017-04-19T10:34:41.733Z,74.3
2017-04-19T10:35:41.757Z,73.72
2017-04-19T10:36:41.779Z,73.54
2017-04-19T10:37:41.801Z,74.11
2017-04-19T10:38:41.827Z,74.39
2017-04-19T10:39:41.845Z,74.68
2017-04-19T10:41:56.504Z,74.87
2017-04-19T10:42:41.908Z,74.87
2017-04-19T10:43:41.932Z,74.43
2017-04-19T10:44:41.955Z,74.15
2017-04-19T10:45:41.978Z,73.38
2017-04-19T10:46:42.001Z,72.15
2017-04-19T10:47:42.017Z,72.44
2017-04-19T10:48:41.734Z,72.63
2017-04-19T10:49:42.060Z,73.29
2017-04-19T10:50:42.082Z,72.19
2017-04-19T10:51:56.720Z,71.9
2017-04-19T10:52:42.124Z,71.23
2017-04-19T10:53:42.145Z,70.76
2017-04-19T10:54:42.306Z,70.67
2017-04-19T10:56:41.909Z,70.38
2017-04-19T10:57:56.850Z,69.53
2017-04-19T10:58:42.254Z,67.66
2017-04-19T10:59:41.973Z,67.09
2017-04-19T11:00:41.995Z,67.19
2017-04-19T11:01:42.320Z,66.77
2017-04-19T11:02:42.342Z,67.85
2017-04-19T11:03:42.363Z,67.28
2017-04-19T11:04:42.383Z,67.47
2017-04-19T11:05:42.409Z,67.76
2017-04-19T11:06:42.434Z,66.9
2017-04-19T11:07:42.147Z,66.36
2017-04-19T11:08:42.468Z,64.31
2017-04-19T11:09:42.491Z,62.12
2017-04-19T11:10:42.512Z,60.21
2017-04-19T11:11:42.538Z,60.31
2017-04-19T11:12:42.556Z,59.74
2017-04-19T11:13:57.194Z,59.9
2017-04-19T11:14:42.602Z,61.39
2017-04-19T11:15:42.626Z,64.14
2017-04-19T11:16:42.643Z,66.77
2017-04-19T11:17:42.362Z,69.11
2017-04-19T11:18:42.389Z,69.4
2017-04-19T11:19:42.707Z,69.78
2017-04-19T11:20:42.730Z,69.78
2017-04-19T11:21:42.446Z,70.25
2017-04-19T11:22:42.468Z,70.06
2017-04-19T11:23:42.793Z,70.73
2017-04-19T11:24:42.510Z,70.25
2017-04-19T11:26:42.855Z,68.96
2017-04-19T11:27:42.573Z,68.77
2017-04-19T11:28:42.593Z,68.48
2017-04-19T11:29:57.535Z,67.82
2017-04-19T11:30:42.635Z,68.01
2017-04-19T11:31:42.658Z,67.79
2017-04-19T11:32:42.677Z,68.54
2017-04-19T11:33:42.699Z,68.26
2017-04-19T11:34:42.720Z,66.87
2017-04-19T11:35:43.045Z,66.3
2017-04-19T11:36:42.763Z,64.97
2017-04-19T11:37:42.783Z,64.4
2017-04-19T11:38:42.804Z,63.01
2017-04-19T11:39:43.132Z,62.81
2017-04-19T11:40:42.847Z,61.8
2017-04-19T11:42:42.892Z,58.59
2017-04-19T11:43:42.915Z,56.82
2017-04-19T11:44:57.853Z,56.72
2017-04-19T11:45:43.257Z,57.26
2017-04-19T11:46:42.975Z,57.93
2017-04-19T11:47:42.995Z,61.26
2017-04-19T11:48:43.017Z,65.54
2017-04-19T11:49:43.343Z,70.06
2017-04-19T11:50:43.363Z,71.83
2017-04-19T11:51:43.383Z,73.16
2017-04-19T11:52:43.405Z,73.72
2017-04-19T11:53:43.424Z,74.2
2017-04-19T11:54:43.446Z,75.43
2017-04-19T11:55:43.467Z,74.49
2017-04-19T11:56:43.488Z,74.33
2017-04-19T11:58:43.535Z,73.96
2017-04-19T11:59:43.554Z,73.29
2017-04-19T12:00:43.667Z,72.38
2017-04-19T12:01:43.593Z,72.28
2017-04-19T12:02:43.611Z,71.14
2017-04-19T12:03:43.633Z,71.23
2017-04-19T12:04:43.652Z,70.86
2017-04-19T12:05:43.676Z,69.62
2017-04-19T12:06:43.392Z,69.62
2017-04-19T12:07:43.717Z,69.91
2017-04-19T12:08:43.433Z,69.34
2017-04-19T12:09:43.647Z,68.96
2017-04-19T12:10:43.473Z,68.42
2017-04-19T12:11:43.496Z,68.23
2017-04-19T12:13:43.541Z,66.61
2017-04-19T12:15:43.882Z,66.84
2017-04-19T12:16:58.519Z,66.46
2017-04-19T12:17:43.621Z,65.51
2017-04-19T12:18:43.641Z,64.56
2017-04-19T12:19:43.662Z,64.94
2017-04-19T12:20:43.684Z,65.41
2017-04-19T12:21:44.008Z,64.65
2017-04-19T12:22:44.029Z,63.7
2017-04-19T12:23:43.746Z,64.34
2017-04-19T12:24:43.768Z,64.14
2017-04-19T12:25:43.788Z,63.86
2017-04-19T12:26:44.113Z,64.37
2017-04-19T12:27:44.134Z,64.18
2017-04-19T12:29:44.177Z,64.05
2017-04-19T12:31:44.218Z,65.82
2017-04-19T12:32:58.858Z,66.87
2017-04-19T12:33:44.262Z,67.63
2017-04-19T12:34:44.282Z,66.77
2017-04-19T12:35:44.302Z,66.93
2017-04-19T12:36:44.324Z,66.83
2017-04-19T12:37:44.040Z,66.74
2017-04-19T12:38:44.363Z,66.39
2017-04-19T12:39:44.383Z,65.79
2017-04-19T12:40:44.406Z,65.03
2017-04-19T12:41:44.425Z,65.16
2017-04-19T12:42:44.448Z,64.87
2017-04-19T12:43:44.173Z,64.87
2017-04-19T12:44:44.184Z,63.86
2017-04-19T12:45:44.208Z,63.01
2017-04-19T12:47:44.551Z,60.63
2017-04-19T12:48:59.188Z,59.58
2017-04-19T12:49:44.594Z,58.73
2017-04-19T12:50:44.616Z,58.22
2017-04-19T12:51:44.633Z,58.54
2017-04-19T12:52:44.653Z,58.16
2017-04-19T12:53:44.675Z,58.63
2017-04-19T12:54:44.699Z,58.83
2017-04-19T12:55:44.413Z,58.73
2017-04-19T12:56:44.737Z,58.44
2017-04-19T12:57:44.454Z,58.63
2017-04-19T12:58:44.476Z,58.83
2017-04-19T12:59:44.495Z,59.3
2017-04-19T13:00:44.820Z,59.77
2017-04-19T13:01:44.845Z,60.44
2017-04-19T13:02:44.561Z,59.87
2017-04-19T13:03:44.579Z,60.98
2017-04-19T13:04:59.519Z,61.26
2017-04-19T13:05:45.077Z,61.07
2017-04-19T13:06:44.944Z,61.17
2017-04-19T13:07:44.964Z,61.55
2017-04-19T13:08:44.682Z,61.93
2017-04-19T13:09:45.024Z,61.83
2017-04-19T13:10:45.026Z,61.07
2017-04-19T13:11:45.047Z,60.03
2017-04-19T13:12:44.765Z,60.31
2017-04-19T13:13:45.087Z,60.31
2017-04-19T13:14:45.107Z,59.55
2017-04-19T13:15:45.128Z,59.08
2017-04-19T13:16:45.149Z,59.55
2017-04-19T13:18:45.191Z,58.92
2017-04-19T13:19:59.829Z,58.44
2017-04-19T13:20:45.233Z,58.44
2017-04-19T13:21:45.252Z,58.06
2017-04-19T13:22:45.274Z,57.4
2017-04-19T13:23:45.293Z,57.02
2017-04-19T13:24:45.313Z,56.92
2017-04-19T13:25:45.334Z,55.69
2017-04-19T13:26:45.354Z,54.64
2017-04-19T13:27:45.377Z,54.93
2017-04-19T13:28:45.397Z,53.05
2017-04-19T13:29:45.416Z,52.39
2017-04-19T13:30:45.437Z,51.34
2017-04-19T13:31:45.154Z,51.15
2017-04-19T13:32:45.477Z,51.06
2017-04-19T13:33:45.498Z,51.6
2017-04-19T13:34:45.519Z,52.08
2017-04-19T13:35:45.236Z,52.17
2017-04-19T13:36:45.561Z,52.45
2017-04-19T13:37:45.582Z,52.2
2017-04-19T13:38:45.604Z,51.25
2017-04-19T13:39:45.318Z,51.34
2017-04-19T13:40:45.645Z,51.06
2017-04-19T13:41:45.665Z,51.91
2017-04-19T13:42:45.766Z,52.29
2017-04-19T13:43:45.402Z,51.37
2017-04-19T13:44:45.726Z,51.84
2017-04-19T13:45:45.443Z,51.56
2017-04-19T13:46:45.465Z,52.2
2017-04-19T13:47:45.788Z,52.13
2017-04-19T13:49:45.829Z,52.61
2017-04-19T13:50:45.851Z,54.13
2017-04-19T13:52:00.489Z,56.85
2017-04-19T13:52:45.893Z,57.52
2017-04-19T13:53:45.914Z,58.35